Terminal Aerodrome Forecast
Issued by NWS

Home | Current Version | Previous Version | Text Only | Print | Product List | Glossary On
Versions: 1 2 3 4 5 6 7 8 9 10 11 12 13 14 15 16 17 18
000
FTUS42 KTAE 021300 AAA
TAFVLD
TAF AMD
KVLD 021326Z 0213/0312 04003KT 6SM BR SCT030
     FM021400 10005KT P6SM SCT050 BKN250
     FM030900 16002KT 6SM BR SCT015=

USA.gov is the U.S. government's official web portal to all federal, state and local government web resources and services.